Disclaimer

Please do not use the information listed here in-flight or in-navigation, as they are not provided to us by the airports but are provided by volunteers, so they might be outdated.

Search


Regions


Airport information page

Radio informations:
KRYVYI RIH TWR - 120.3 MHz
KRYVYI RIH METEO - 125.875 MHz

Airport informations:
Latitude: 48° 02' 36.00" N
Longitude: 033° 12' 36.00" E
Elevation: 408 feet - 124 meters
Operating hours: 24 hour operations
Operating agency: Civil government, landing fees and diplomatic clearance may be required
Timezone: UTC+2(+3DT)
Fuel: N/A

Runway information:
18/36 - 8202 x 138 feet< - >2500 x 42 meters

Recent METARs:
UKDR 181930Z 19002MPS 9999 OVC015 00/M02 Q1024 R36/09//70 NOSIG
UKDR 182000Z 14002MPS 100V180 9999 OVC015 00/M02 Q1024 R36/09//70 NOSIG
UKDR 182030Z 14002MPS 100V180 9999 OVC015 00/M02 Q1024 R36/09//70 NOSIG

Airport on the map: